Custer, WA (98240)

8:30 AM PST on December 27, 2014 (GMT -0800)
NE Ferndale | Change Station
CLOSE
Current Station
Personal Weather Station
Location: Ferndale, WA
Elevation: 69 ft
Nearby Weather Stations

Elev 69 ft 48.90 °N, 122.58 °W | Updated 13 minutes ago

Overcast
Overcast
37.5 °F
Feels Like 38 °F
N
0.0
Wind Variable Wind from West
Gusts 1.0 mph

Today
High -- | Low -- °F
--% Chance of Precip.
Yesterday
High -- | Low -- °F
Precip. -- in
8:03 AM 4:19 PM
Waxing Crescent, 38% visible
Pressure 30.11 in
Visibility 5.0 miles
Clouds Overcast 1700 ft
Windchill 38 °F
Dew Point 37 °F
Humidity 97%
Rainfall 0.25 in
Snow Depth Not available.
UV 0 out of 12
Pollen .50 out of 12
Air Quality Not available.
Flu Activity Not available.
METAR KBLI 271553Z 00000KT 5SM -RA BR OVC017 04/03 A3008 RMK AO2 SLP194 P0004 T00390033

More Conditions Fewer Conditions

Pressure 30.11 in
Visibility 5.0 miles
Clouds Overcast 1700 ft
Windchill 38 °F
Dew Point 37 °F
Humidity 97%
Rainfall 0.25 in
Snow Depth Not available.
UV 0 out of 12
Pollen .50 out of 12
Air Quality Not available.
Flu Activity Not available.
METAR KBLI 271553Z 00000KT 5SM -RA BR OVC017 04/03 A3008 RMK AO2 SLP194 P0004 T00390033

More Conditions Fewer Conditions

10-Day Weather Forecast

Almanac

Astronomy

Dec. 27, 2014 Rise Set
Actual Time
Civil Twilight
Nautical Twilight
Astronomical Twilight
Moon
Length of Visible Light
Length of Day
Tomorrow will be .
, % of the Moon is Illuminated

Today's Extremes

State Highs State Lows

Community

WunderPhotos

Upload Photos

1,780,954 photos uploaded!

WunderBlogs® & News

Nearby

Air Quality

  Air Quality AQ Index Pollutant
Not available.

Snow Depth

Station Depth Elevation

Earthquake Activity

City Distance Mag. Time & Date
Minimum magnitude displayed is 2.5.

Coastal Water Temperatures

Place Temperature

Nearby Weather Stations